sensor_id;sensor_type;location;lat;lon;timestamp;pressure;altitude;pressure_sealevel;temperature;humidity
81905;BME280;71370;-33.792;151.032;2023-10-13T00:00:21;101178.75;;;19.67;29.55
81905;BME280;71370;-33.792;151.032;2023-10-13T00:01:42;101176.25;;;19.71;29.17
81905;BME280;71370;-33.792;151.032;2023-10-13T00:02:49;101180.11;;;19.73;28.55
81905;BME280;71370;-33.792;151.032;2023-10-13T00:03:57;101175.16;;;19.77;29.09
81905;BME280;71370;-33.792;151.032;2023-10-13T00:05:04;101179.04;;;19.81;29.29
81905;BME280;71370;-33.792;151.032;2023-10-13T00:06:12;101170.95;;;19.87;29.12
81905;BME280;71370;-33.792;151.032;2023-10-13T00:07:19;101166.22;;;19.93;28.90
81905;BME280;71370;-33.792;151.032;2023-10-13T00:08:26;101171.27;;;19.99;28.75
81905;BME280;71370;-33.792;151.032;2023-10-13T00:09:35;101167.27;;;20.04;28.46
81905;BME280;71370;-33.792;151.032;2023-10-13T00:10:45;101167.66;;;20.08;28.12
81905;BME280;71370;-33.792;151.032;2023-10-13T00:11:54;101162.94;;;20.10;28.07
81905;BME280;71370;-33.792;151.032;2023-10-13T00:13:03;101156.81;;;20.11;28.21
81905;BME280;71370;-33.792;151.032;2023-10-13T00:14:16;101152.59;;;20.13;28.48
81905;BME280;71370;-33.792;151.032;2023-10-13T00:15:23;101150.27;;;20.17;28.64
81905;BME280;71370;-33.792;151.032;2023-10-13T00:16:34;101149.66;;;20.22;28.76
81905;BME280;71370;-33.792;151.032;2023-10-13T00:17:44;101148.80;;;20.29;28.40
81905;BME280;71370;-33.792;151.032;2023-10-13T00:18:52;101149.60;;;20.35;28.26
81905;BME280;71370;-33.792;151.032;2023-10-13T00:20:03;101149.73;;;20.39;28.71
81905;BME280;71370;-33.792;151.032;2023-10-13T00:21:18;101150.70;;;20.46;28.52
81905;BME280;71370;-33.792;151.032;2023-10-13T00:22:42;101151.64;;;20.52;28.27
81905;BME280;71370;-33.792;151.032;2023-10-13T00:23:50;101152.23;;;20.58;27.97
81905;BME280;71370;-33.792;151.032;2023-10-13T00:25:00;101148.60;;;20.64;27.80
81905;BME280;71370;-33.792;151.032;2023-10-13T00:26:09;101142.70;;;20.68;27.59
81905;BME280;71370;-33.792;151.032;2023-10-13T00:27:18;101144.79;;;20.72;27.63
81905;BME280;71370;-33.792;151.032;2023-10-13T00:28:35;101143.32;;;20.77;26.96
81905;BME280;71370;-33.792;151.032;2023-10-13T00:29:51;101141.77;;;20.79;26.84
81905;BME280;71370;-33.792;151.032;2023-10-13T00:31:10;101144.29;;;20.82;27.04
81905;BME280;71370;-33.792;151.032;2023-10-13T00:32:18;101145.78;;;20.85;27.39
81905;BME280;71370;-33.792;151.032;2023-10-13T00:33:33;101135.48;;;20.87;26.46
81905;BME280;71370;-33.792;151.032;2023-10-13T00:34:42;101133.30;;;20.88;27.03
81905;BME280;71370;-33.792;151.032;2023-10-13T00:35:50;101131.56;;;20.90;26.88
81905;BME280;71370;-33.792;151.032;2023-10-13T00:37:00;101127.07;;;20.91;26.47
81905;BME280;71370;-33.792;151.032;2023-10-13T00:38:24;101116.14;;;20.91;25.85
81905;BME280;71370;-33.792;151.032;2023-10-13T00:39:33;101116.30;;;20.92;25.99
81905;BME280;71370;-33.792;151.032;2023-10-13T00:40:44;101114.81;;;20.93;25.86
81905;BME280;71370;-33.792;151.032;2023-10-13T00:41:58;101112.69;;;20.96;25.99
81905;BME280;71370;-33.792;151.032;2023-10-13T00:43:12;101115.27;;;21.02;25.47
81905;BME280;71370;-33.792;151.032;2023-10-13T00:44:25;101103.72;;;21.04;25.06
81905;BME280;71370;-33.792;151.032;2023-10-13T00:45:48;101104.66;;;21.06;24.99
81905;BME280;71370;-33.792;151.032;2023-10-13T00:47:01;101098.61;;;21.09;25.19
81905;BME280;71370;-33.792;151.032;2023-10-13T00:48:08;101092.13;;;21.13;25.27
81905;BME280;71370;-33.792;151.032;2023-10-13T00:49:17;101086.99;;;21.19;24.67
81905;BME280;71370;-33.792;151.032;2023-10-13T00:50:25;101086.17;;;21.25;25.13
81905;BME280;71370;-33.792;151.032;2023-10-13T00:51:33;101084.71;;;21.32;25.26
81905;BME280;71370;-33.792;151.032;2023-10-13T00:52:48;101080.03;;;21.40;23.94
81905;BME280;71370;-33.792;151.032;2023-10-13T00:53:59;101080.66;;;21.45;24.65
81905;BME280;71370;-33.792;151.032;2023-10-13T00:55:07;101075.87;;;21.51;25.10
81905;BME280;71370;-33.792;151.032;2023-10-13T00:56:15;101072.80;;;21.58;24.59
81905;BME280;71370;-33.792;151.032;2023-10-13T00:57:25;101074.20;;;21.65;24.86
81905;BME280;71370;-33.792;151.032;2023-10-13T00:58:38;101073.04;;;21.70;24.26
81905;BME280;71370;-33.792;151.032;2023-10-13T00:59:45;101071.73;;;21.74;24.30
81905;BME280;71370;-33.792;151.032;2023-10-13T01:00:53;101070.48;;;21.77;23.29
81905;BME280;71370;-33.792;151.032;2023-10-13T01:02:23;101065.97;;;21.82;23.93
81905;BME280;71370;-33.792;151.032;2023-10-13T01:03:46;101068.88;;;21.87;23.83
81905;BME280;71370;-33.792;151.032;2023-10-13T01:04:56;101056.88;;;21.91;23.70
81905;BME280;71370;-33.792;151.032;2023-10-13T01:06:04;101059.42;;;21.96;23.95
81905;BME280;71370;-33.792;151.032;2023-10-13T01:07:11;101054.89;;;22.04;24.18
81905;BME280;71370;-33.792;151.032;2023-10-13T01:08:18;101045.02;;;22.10;23.90
81905;BME280;71370;-33.792;151.032;2023-10-13T01:09:26;101045.58;;;22.16;23.29
81905;BME280;71370;-33.792;151.032;2023-10-13T01:10:33;101042.31;;;22.20;23.39
81905;BME280;71370;-33.792;151.032;2023-10-13T01:11:52;101045.30;;;22.24;23.80
81905;BME280;71370;-33.792;151.032;2023-10-13T01:13:00;101041.66;;;22.29;23.19
81905;BME280;71370;-33.792;151.032;2023-10-13T01:14:14;101038.92;;;22.36;22.97
81905;BME280;71370;-33.792;151.032;2023-10-13T01:15:25;101037.88;;;22.42;22.60
81905;BME280;71370;-33.792;151.032;2023-10-13T01:16:36;101034.64;;;22.45;22.00
81905;BME280;71370;-33.792;151.032;2023-10-13T01:17:46;101030.65;;;22.49;22.44
81905;BME280;71370;-33.792;151.032;2023-10-13T01:18:53;101022.16;;;22.53;22.66
81905;BME280;71370;-33.792;151.032;2023-10-13T01:20:06;101013.51;;;22.60;23.11
81905;BME280;71370;-33.792;151.032;2023-10-13T01:21:17;101007.73;;;22.69;22.80
81905;BME280;71370;-33.792;151.032;2023-10-13T01:22:26;101010.52;;;22.80;22.82
81905;BME280;71370;-33.792;151.032;2023-10-13T01:23:38;101011.05;;;22.89;22.23
81905;BME280;71370;-33.792;151.032;2023-10-13T01:24:48;101007.63;;;22.95;21.87
81905;BME280;71370;-33.792;151.032;2023-10-13T01:25:55;101002.45;;;23.01;21.39
81905;BME280;71370;-33.792;151.032;2023-10-13T01:27:03;101004.79;;;23.04;21.32
81905;BME280;71370;-33.792;151.032;2023-10-13T01:28:30;101003.92;;;23.09;21.11
81905;BME280;71370;-33.792;151.032;2023-10-13T01:29:50;101005.44;;;23.14;20.75
81905;BME280;71370;-33.792;151.032;2023-10-13T01:31:02;101003.15;;;23.16;20.57
81905;BME280;71370;-33.792;151.032;2023-10-13T01:32:09;100999.25;;;23.18;21.24
81905;BME280;71370;-33.792;151.032;2023-10-13T01:33:19;101006.80;;;23.24;21.51
81905;BME280;71370;-33.792;151.032;2023-10-13T01:34:35;101011.00;;;23.31;20.51
81905;BME280;71370;-33.792;151.032;2023-10-13T01:35:43;101009.35;;;23.35;20.66
81905;BME280;71370;-33.792;151.032;2023-10-13T01:36:55;101003.14;;;23.37;20.87
81905;BME280;71370;-33.792;151.032;2023-10-13T01:38:02;100998.08;;;23.40;20.61
81905;BME280;71370;-33.792;151.032;2023-10-13T01:39:09;100996.48;;;23.43;20.83
81905;BME280;71370;-33.792;151.032;2023-10-13T01:40:17;100997.27;;;23.47;20.49
81905;BME280;71370;-33.792;151.032;2023-10-13T01:41:27;100995.78;;;23.51;20.88
81905;BME280;71370;-33.792;151.032;2023-10-13T01:42:37;100995.35;;;23.55;20.75
81905;BME280;71370;-33.792;151.032;2023-10-13T01:43:44;100994.39;;;23.58;20.79
81905;BME280;71370;-33.792;151.032;2023-10-13T01:44:51;100999.84;;;23.63;21.16
81905;BME280;71370;-33.792;151.032;2023-10-13T01:46:04;101000.45;;;23.67;20.83
81905;BME280;71370;-33.792;151.032;2023-10-13T01:47:11;101000.66;;;23.72;20.51
81905;BME280;71370;-33.792;151.032;2023-10-13T01:48:18;100996.08;;;23.77;20.51
81905;BME280;71370;-33.792;151.032;2023-10-13T01:49:27;101001.71;;;23.82;20.37
81905;BME280;71370;-33.792;151.032;2023-10-13T01:50:36;101000.25;;;23.85;19.96
81905;BME280;71370;-33.792;151.032;2023-10-13T01:51:43;101003.78;;;23.86;20.19
81905;BME280;71370;-33.792;151.032;2023-10-13T01:52:53;101002.29;;;23.87;19.83
81905;BME280;71370;-33.792;151.032;2023-10-13T01:54:19;101001.44;;;23.89;20.43
81905;BME280;71370;-33.792;151.032;2023-10-13T01:55:27;101002.61;;;23.93;20.36
81905;BME280;71370;-33.792;151.032;2023-10-13T01:56:34;100998.05;;;23.97;20.03
81905;BME280;71370;-33.792;151.032;2023-10-13T01:57:48;101003.27;;;23.99;20.15
81905;BME280;71370;-33.792;151.032;2023-10-13T01:58:55;100995.24;;;24.01;19.01
81905;BME280;71370;-33.792;151.032;2023-10-13T02:00:03;100995.50;;;24.02;19.18
81905;BME280;71370;-33.792;151.032;2023-10-13T02:01:24;100997.52;;;24.02;19.17
81905;BME280;71370;-33.792;151.032;2023-10-13T02:02:40;100995.67;;;24.03;19.88
81905;BME280;71370;-33.792;151.032;2023-10-13T02:03:51;100990.31;;;24.05;20.15
81905;BME280;71370;-33.792;151.032;2023-10-13T02:05:07;100991.14;;;24.09;19.87
81905;BME280;71370;-33.792;151.032;2023-10-13T02:06:15;100991.60;;;24.13;20.04
81905;BME280;71370;-33.792;151.032;2023-10-13T02:07:30;100993.13;;;24.17;19.82
81905;BME280;71370;-33.792;151.032;2023-10-13T02:08:37;100995.42;;;24.20;19.47
81905;BME280;71370;-33.792;151.032;2023-10-13T02:09:46;100988.48;;;24.22;19.46
81905;BME280;71370;-33.792;151.032;2023-10-13T02:10:55;100985.21;;;24.22;19.48
81905;BME280;71370;-33.792;151.032;2023-10-13T02:12:02;100981.92;;;24.26;20.07
81905;BME280;71370;-33.792;151.032;2023-10-13T02:13:13;100984.55;;;24.32;19.98
81905;BME280;71370;-33.792;151.032;2023-10-13T02:14:24;100979.60;;;24.39;19.57
81905;BME280;71370;-33.792;151.032;2023-10-13T02:15:31;100981.02;;;24.45;19.89
81905;BME280;71370;-33.792;151.032;2023-10-13T02:16:41;100978.70;;;24.50;19.28
81905;BME280;71370;-33.792;151.032;2023-10-13T02:17:48;100974.70;;;24.54;19.35
81905;BME280;71370;-33.792;151.032;2023-10-13T02:18:58;100974.85;;;24.57;19.65
81905;BME280;71370;-33.792;151.032;2023-10-13T02:20:10;100977.23;;;24.61;19.81
81905;BME280;71370;-33.792;151.032;2023-10-13T02:21:20;100981.39;;;24.68;20.00
81905;BME280;71370;-33.792;151.032;2023-10-13T02:22:28;100980.14;;;24.74;19.71
81905;BME280;71370;-33.792;151.032;2023-10-13T02:23:36;100986.69;;;24.76;19.44
81905;BME280;71370;-33.792;151.032;2023-10-13T02:24:49;100989.95;;;24.75;19.21
81905;BME280;71370;-33.792;151.032;2023-10-13T02:26:01;100987.70;;;24.73;19.71
81905;BME280;71370;-33.792;151.032;2023-10-13T02:27:19;100988.89;;;24.75;19.49
81905;BME280;71370;-33.792;151.032;2023-10-13T02:28:29;100988.55;;;24.77;19.61
81905;BME280;71370;-33.792;151.032;2023-10-13T02:29:41;100986.39;;;24.79;19.58
81905;BME280;71370;-33.792;151.032;2023-10-13T02:30:52;100983.75;;;24.81;19.43
81905;BME280;71370;-33.792;151.032;2023-10-13T02:31:59;100982.86;;;24.81;19.78
81905;BME280;71370;-33.792;151.032;2023-10-13T02:33:12;100979.48;;;24.83;20.02
81905;BME280;71370;-33.792;151.032;2023-10-13T02:34:19;100977.61;;;24.84;19.65
81905;BME280;71370;-33.792;151.032;2023-10-13T02:35:28;100971.14;;;24.87;20.35
81905;BME280;71370;-33.792;151.032;2023-10-13T02:36:47;100977.08;;;24.95;20.24
81905;BME280;71370;-33.792;151.032;2023-10-13T02:37:58;100974.04;;;24.99;20.11
81905;BME280;71370;-33.792;151.032;2023-10-13T02:39:17;100972.17;;;25.03;19.86
81905;BME280;71370;-33.792;151.032;2023-10-13T02:40:35;100972.51;;;25.06;20.17
81905;BME280;71370;-33.792;151.032;2023-10-13T02:41:43;100973.63;;;25.08;19.74
81905;BME280;71370;-33.792;151.032;2023-10-13T02:42:54;100974.17;;;25.08;19.55
81905;BME280;71370;-33.792;151.032;2023-10-13T02:44:02;100971.84;;;25.05;19.57
81905;BME280;71370;-33.792;151.032;2023-10-13T02:45:12;100971.09;;;25.03;19.68
81905;BME280;71370;-33.792;151.032;2023-10-13T02:46:20;100962.38;;;25.04;19.88
81905;BME280;71370;-33.792;151.032;2023-10-13T02:47:34;100963.23;;;25.10;19.87
81905;BME280;71370;-33.792;151.032;2023-10-13T02:48:42;100954.66;;;25.16;20.06
81905;BME280;71370;-33.792;151.032;2023-10-13T02:49:52;100957.14;;;25.22;20.01
81905;BME280;71370;-33.792;151.032;2023-10-13T02:51:00;100958.84;;;25.27;20.03
81905;BME280;71370;-33.792;151.032;2023-10-13T02:52:08;100961.98;;;25.31;19.71
81905;BME280;71370;-33.792;151.032;2023-10-13T02:53:16;100962.80;;;25.32;19.35
81905;BME280;71370;-33.792;151.032;2023-10-13T02:54:25;100963.21;;;25.31;19.44
81905;BME280;71370;-33.792;151.032;2023-10-13T02:55:50;100960.44;;;25.30;19.36
81905;BME280;71370;-33.792;151.032;2023-10-13T02:56:58;100956.23;;;25.30;19.85
81905;BME280;71370;-33.792;151.032;2023-10-13T02:58:10;100958.84;;;25.34;20.06
81905;BME280;71370;-33.792;151.032;2023-10-13T02:59:21;100954.69;;;25.39;20.19
81905;BME280;71370;-33.792;151.032;2023-10-13T03:00:40;100949.61;;;25.47;20.09
81905;BME280;71370;-33.792;151.032;2023-10-13T03:01:47;100946.97;;;25.54;20.02
81905;BME280;71370;-33.792;151.032;2023-10-13T03:02:59;100946.69;;;25.62;19.92
81905;BME280;71370;-33.792;151.032;2023-10-13T03:04:06;100936.42;;;25.68;19.73
81905;BME280;71370;-33.792;151.032;2023-10-13T03:05:19;100939.52;;;25.74;20.08
81905;BME280;71370;-33.792;151.032;2023-10-13T03:06:29;100936.92;;;25.80;19.68
81905;BME280;71370;-33.792;151.032;2023-10-13T03:07:39;100939.20;;;25.86;20.14
81905;BME280;71370;-33.792;151.032;2023-10-13T03:08:51;100935.75;;;25.91;20.06
81905;BME280;71370;-33.792;151.032;2023-10-13T03:09:59;100935.89;;;25.97;19.71
81905;BME280;71370;-33.792;151.032;2023-10-13T03:11:15;100931.29;;;26.00;19.66
81905;BME280;71370;-33.792;151.032;2023-10-13T03:12:27;100925.00;;;26.00;19.75
81905;BME280;71370;-33.792;151.032;2023-10-13T03:13:41;100935.41;;;25.98;19.81
81905;BME280;71370;-33.792;151.032;2023-10-13T03:14:51;100935.84;;;25.97;19.66
81905;BME280;71370;-33.792;151.032;2023-10-13T03:16:14;100931.39;;;25.97;19.75
81905;BME280;71370;-33.792;151.032;2023-10-13T03:17:25;100925.81;;;25.96;19.67
81905;BME280;71370;-33.792;151.032;2023-10-13T03:18:48;100931.86;;;25.95;19.98
81905;BME280;71370;-33.792;151.032;2023-10-13T03:20:02;100932.66;;;25.92;20.32
81905;BME280;71370;-33.792;151.032;2023-10-13T03:21:15;100928.88;;;25.92;20.23
81905;BME280;71370;-33.792;151.032;2023-10-13T03:22:34;100930.23;;;25.90;19.99
81905;BME280;71370;-33.792;151.032;2023-10-13T03:23:41;100923.69;;;25.89;19.86
81905;BME280;71370;-33.792;151.032;2023-10-13T03:24:52;100922.46;;;25.86;19.88
81905;BME280;71370;-33.792;151.032;2023-10-13T03:25:59;100914.20;;;25.85;20.27
81905;BME280;71370;-33.792;151.032;2023-10-13T03:27:17;100919.00;;;25.88;20.52
81905;BME280;71370;-33.792;151.032;2023-10-13T03:28:29;100933.88;;;25.93;20.47
81905;BME280;71370;-33.792;151.032;2023-10-13T03:29:39;100932.95;;;25.90;19.84
81905;BME280;71370;-33.792;151.032;2023-10-13T03:30:50;100932.25;;;25.88;19.79
81905;BME280;71370;-33.792;151.032;2023-10-13T03:31:59;100931.45;;;25.86;19.69
81905;BME280;71370;-33.792;151.032;2023-10-13T03:33:13;100927.98;;;25.84;19.56
81905;BME280;71370;-33.792;151.032;2023-10-13T03:34:31;100922.09;;;25.83;20.36
81905;BME280;71370;-33.792;151.032;2023-10-13T03:35:39;100920.75;;;25.87;20.22
81905;BME280;71370;-33.792;151.032;2023-10-13T03:36:49;100914.95;;;25.90;20.29
81905;BME280;71370;-33.792;151.032;2023-10-13T03:38:05;100913.63;;;25.88;19.97
81905;BME280;71370;-33.792;151.032;2023-10-13T03:39:24;100922.98;;;25.86;20.03
81905;BME280;71370;-33.792;151.032;2023-10-13T03:40:34;100916.11;;;25.84;20.00
81905;BME280;71370;-33.792;151.032;2023-10-13T03:41:42;100912.84;;;25.82;20.57
81905;BME280;71370;-33.792;151.032;2023-10-13T03:42:53;100907.78;;;25.82;20.60
81905;BME280;71370;-33.792;151.032;2023-10-13T03:44:18;100910.89;;;25.81;20.39
81905;BME280;71370;-33.792;151.032;2023-10-13T03:45:26;100907.29;;;25.79;20.29
81905;BME280;71370;-33.792;151.032;2023-10-13T03:46:35;100908.08;;;25.78;20.48
81905;BME280;71370;-33.792;151.032;2023-10-13T03:47:47;100910.48;;;25.77;20.46
81905;BME280;71370;-33.792;151.032;2023-10-13T03:48:57;100901.89;;;25.77;20.42
81905;BME280;71370;-33.792;151.032;2023-10-13T03:50:08;100900.10;;;25.79;20.71
81905;BME280;71370;-33.792;151.032;2023-10-13T03:51:22;100895.45;;;25.81;20.60
81905;BME280;71370;-33.792;151.032;2023-10-13T03:52:36;100888.16;;;25.82;19.94
81905;BME280;71370;-33.792;151.032;2023-10-13T03:53:44;100883.52;;;25.81;20.25
81905;BME280;71370;-33.792;151.032;2023-10-13T03:55:00;100883.17;;;25.83;20.42
81905;BME280;71370;-33.792;151.032;2023-10-13T03:56:11;100890.17;;;25.89;20.54
81905;BME280;71370;-33.792;151.032;2023-10-13T03:57:21;100885.61;;;25.89;20.07
81905;BME280;71370;-33.792;151.032;2023-10-13T03:58:32;100880.27;;;25.86;20.42
81905;BME280;71370;-33.792;151.032;2023-10-13T03:59:41;100878.02;;;25.85;20.52
81905;BME280;71370;-33.792;151.032;2023-10-13T04:00:52;100873.62;;;25.86;20.92
81905;BME280;71370;-33.792;151.032;2023-10-13T04:02:00;100872.45;;;25.87;20.73
81905;BME280;71370;-33.792;151.032;2023-10-13T04:03:09;100883.01;;;25.88;20.78
81905;BME280;71370;-33.792;151.032;2023-10-13T04:04:17;100885.78;;;25.90;20.32
81905;BME280;71370;-33.792;151.032;2023-10-13T04:05:54;100879.46;;;25.90;19.92
81905;BME280;71370;-33.792;151.032;2023-10-13T04:07:12;100878.69;;;25.91;19.94
81905;BME280;71370;-33.792;151.032;2023-10-13T04:08:27;100873.09;;;25.93;20.08
81905;BME280;71370;-33.792;151.032;2023-10-13T04:09:36;100873.66;;;25.95;20.05
81905;BME280;71370;-33.792;151.032;2023-10-13T04:10:43;100870.17;;;25.96;20.30
81905;BME280;71370;-33.792;151.032;2023-10-13T04:12:07;100868.08;;;25.98;20.66
81905;BME280;71370;-33.792;151.032;2023-10-13T04:13:20;100872.11;;;25.99;20.80
81905;BME280;71370;-33.792;151.032;2023-10-13T04:14:36;100869.00;;;26.00;20.69
81905;BME280;71370;-33.792;151.032;2023-10-13T04:16:01;100873.24;;;25.98;20.33
81905;BME280;71370;-33.792;151.032;2023-10-13T04:17:26;100858.98;;;25.96;20.31
81905;BME280;71370;-33.792;151.032;2023-10-13T04:18:33;100853.45;;;25.96;20.71
81905;BME280;71370;-33.792;151.032;2023-10-13T04:19:55;100866.06;;;25.96;20.42
81905;BME280;71370;-33.792;151.032;2023-10-13T04:21:14;100860.22;;;25.92;19.84
81905;BME280;71370;-33.792;151.032;2023-10-13T04:22:41;100853.39;;;25.89;20.18
81905;BME280;71370;-33.792;151.032;2023-10-13T04:23:54;100857.23;;;25.86;20.28
81905;BME280;71370;-33.792;151.032;2023-10-13T04:25:20;100851.46;;;25.83;19.89
81905;BME280;71370;-33.792;151.032;2023-10-13T04:26:48;100845.20;;;25.81;20.24
81905;BME280;71370;-33.792;151.032;2023-10-13T04:28:14;100850.85;;;25.79;20.45
81905;BME280;71370;-33.792;151.032;2023-10-13T04:29:33;100844.30;;;25.78;20.50
81905;BME280;71370;-33.792;151.032;2023-10-13T04:30:52;100843.54;;;25.79;20.37
81905;BME280;71370;-33.792;151.032;2023-10-13T04:32:03;100853.24;;;25.79;20.66
81905;BME280;71370;-33.792;151.032;2023-10-13T04:33:19;100851.63;;;25.81;20.42
81905;BME280;71370;-33.792;151.032;2023-10-13T04:34:42;100848.74;;;25.84;20.76
81905;BME280;71370;-33.792;151.032;2023-10-13T04:36:09;100846.39;;;25.89;20.76
81905;BME280;71370;-33.792;151.032;2023-10-13T04:37:39;100850.57;;;25.95;20.99
81905;BME280;71370;-33.792;151.032;2023-10-13T04:39:04;100854.14;;;26.01;20.61
81905;BME280;71370;-33.792;151.032;2023-10-13T04:40:11;100843.35;;;26.03;20.51
81905;BME280;71370;-33.792;151.032;2023-10-13T04:41:21;100846.90;;;26.06;20.59
81905;BME280;71370;-33.792;151.032;2023-10-13T04:42:30;100851.63;;;26.08;20.89
81905;BME280;71370;-33.792;151.032;2023-10-13T04:44:07;100846.13;;;26.09;20.38
81905;BME280;71370;-33.792;151.032;2023-10-13T04:45:32;100849.95;;;26.11;20.33
81905;BME280;71370;-33.792;151.032;2023-10-13T04:46:39;100855.30;;;26.12;20.01
81905;BME280;71370;-33.792;151.032;2023-10-13T04:47:52;100853.23;;;26.08;20.26
81905;BME280;71370;-33.792;151.032;2023-10-13T04:49:03;100855.67;;;26.07;19.87
81905;BME280;71370;-33.792;151.032;2023-10-13T04:50:16;100851.50;;;26.05;20.14
81905;BME280;71370;-33.792;151.032;2023-10-13T04:51:33;100857.10;;;26.05;20.24
81905;BME280;71370;-33.792;151.032;2023-10-13T04:52:56;100848.97;;;26.05;20.13
81905;BME280;71370;-33.792;151.032;2023-10-13T04:54:09;100852.21;;;26.07;20.05
81905;BME280;71370;-33.792;151.032;2023-10-13T04:55:34;100852.70;;;26.10;20.38
81905;BME280;71370;-33.792;151.032;2023-10-13T04:57:07;100852.71;;;26.12;20.02
81905;BME280;71370;-33.792;151.032;2023-10-13T04:58:32;100851.09;;;26.12;20.10
81905;BME280;71370;-33.792;151.032;2023-10-13T04:59:39;100850.68;;;26.13;19.90
81905;BME280;71370;-33.792;151.032;2023-10-13T05:01:06;100850.94;;;26.10;20.21
81905;BME280;71370;-33.792;151.032;2023-10-13T05:02:32;100861.98;;;26.07;19.95
81905;BME280;71370;-33.792;151.032;2023-10-13T05:03:42;100861.25;;;26.05;20.26
81905;BME280;71370;-33.792;151.032;2023-10-13T05:05:11;100857.48;;;26.02;20.05
81905;BME280;71370;-33.792;151.032;2023-10-13T05:06:25;100863.06;;;25.97;20.28
81905;BME280;71370;-33.792;151.032;2023-10-13T05:07:52;100855.58;;;25.94;20.42
81905;BME280;71370;-33.792;151.032;2023-10-13T05:09:17;100857.64;;;25.98;20.51
81905;BME280;71370;-33.792;151.032;2023-10-13T05:11:08;100854.07;;;26.02;20.56
81905;BME280;71370;-33.792;151.032;2023-10-13T05:12:33;100850.01;;;26.03;20.51
81905;BME280;71370;-33.792;151.032;2023-10-13T05:13:59;100856.38;;;26.00;20.80
81905;BME280;71370;-33.792;151.032;2023-10-13T05:15:24;100854.61;;;25.92;21.02
81905;BME280;71370;-33.792;151.032;2023-10-13T05:16:49;100850.88;;;25.87;20.68
81905;BME280;71370;-33.792;151.032;2023-10-13T05:18:14;100851.41;;;25.87;20.88
81905;BME280;71370;-33.792;151.032;2023-10-13T05:19:40;100850.10;;;25.90;20.88
81905;BME280;71370;-33.792;151.032;2023-10-13T05:21:05;100849.61;;;25.94;20.84
81905;BME280;71370;-33.792;151.032;2023-10-13T05:22:30;100849.54;;;26.00;20.84
81905;BME280;71370;-33.792;151.032;2023-10-13T05:23:55;100851.30;;;26.02;20.95
81905;BME280;71370;-33.792;151.032;2023-10-13T05:25:20;100852.39;;;26.05;20.70
81905;BME280;71370;-33.792;151.032;2023-10-13T05:26:45;100850.59;;;26.05;20.63
81905;BME280;71370;-33.792;151.032;2023-10-13T05:28:10;100858.67;;;26.06;20.72
81905;BME280;71370;-33.792;151.032;2023-10-13T05:29:39;100858.67;;;26.05;20.50
81905;BME280;71370;-33.792;151.032;2023-10-13T05:31:06;100862.64;;;26.00;19.89
81905;BME280;71370;-33.792;151.032;2023-10-13T05:32:31;100864.27;;;25.96;20.30
81905;BME280;71370;-33.792;151.032;2023-10-13T05:33:57;100866.45;;;25.93;20.41
81905;BME280;71370;-33.792;151.032;2023-10-13T05:35:23;100863.11;;;25.92;20.74
81905;BME280;71370;-33.792;151.032;2023-10-13T05:36:49;100870.44;;;25.90;20.67
81905;BME280;71370;-33.792;151.032;2023-10-13T05:38:14;100868.45;;;25.83;20.79
81905;BME280;71370;-33.792;151.032;2023-10-13T05:39:39;100869.15;;;25.80;20.76
81905;BME280;71370;-33.792;151.032;2023-10-13T05:41:05;100868.27;;;25.80;20.89
81905;BME280;71370;-33.792;151.032;2023-10-13T05:42:31;100865.90;;;25.81;21.37
81905;BME280;71370;-33.792;151.032;2023-10-13T05:43:56;100865.80;;;25.82;21.08
81905;BME280;71370;-33.792;151.032;2023-10-13T05:45:20;100869.60;;;25.82;20.78
81905;BME280;71370;-33.792;151.032;2023-10-13T05:46:43;100864.11;;;25.78;21.21
81905;BME280;71370;-33.792;151.032;2023-10-13T05:48:10;100860.80;;;25.76;21.40
81905;BME280;71370;-33.792;151.032;2023-10-13T05:49:25;100876.77;;;25.75;23.51
81905;BME280;71370;-33.792;151.032;2023-10-13T05:51:07;100878.34;;;25.64;25.00
81905;BME280;71370;-33.792;151.032;2023-10-13T05:52:50;100881.20;;;25.50;25.07
81905;BME280;71370;-33.792;151.032;2023-10-13T05:53:58;100881.14;;;25.43;24.46
81905;BME280;71370;-33.792;151.032;2023-10-13T05:55:32;100888.90;;;25.38;24.81
81905;BME280;71370;-33.792;151.032;2023-10-13T05:56:57;100906.14;;;25.34;26.25
81905;BME280;71370;-33.792;151.032;2023-10-13T05:58:22;100904.91;;;25.31;25.03
81905;BME280;71370;-33.792;151.032;2023-10-13T05:59:47;100892.25;;;25.27;23.61
81905;BME280;71370;-33.792;151.032;2023-10-13T06:01:13;100895.14;;;25.23;24.28
81905;BME280;71370;-33.792;151.032;2023-10-13T06:02:38;100894.83;;;25.20;24.43
81905;BME280;71370;-33.792;151.032;2023-10-13T06:04:03;100897.23;;;25.17;24.17
81905;BME280;71370;-33.792;151.032;2023-10-13T06:05:29;100897.14;;;25.16;23.75
81905;BME280;71370;-33.792;151.032;2023-10-13T06:06:54;100895.61;;;25.14;23.41
81905;BME280;71370;-33.792;151.032;2023-10-13T06:08:19;100885.23;;;25.16;23.69
81905;BME280;71370;-33.792;151.032;2023-10-13T06:09:45;100886.44;;;25.19;23.60
81905;BME280;71370;-33.792;151.032;2023-10-13T06:11:10;100889.07;;;25.23;23.35
81905;BME280;71370;-33.792;151.032;2023-10-13T06:12:35;100889.64;;;25.22;23.28
81905;BME280;71370;-33.792;151.032;2023-10-13T06:14:00;100890.72;;;25.22;23.80
81905;BME280;71370;-33.792;151.032;2023-10-13T06:15:26;100894.02;;;25.21;24.58
81905;BME280;71370;-33.792;151.032;2023-10-13T06:16:50;100888.45;;;25.21;24.64